createdAt,value
2018-12-11T00:00:20.438Z,5.30
2018-12-11T00:02:56.010Z,5.20
2018-12-11T00:05:28.284Z,5.20
2018-12-11T00:08:00.321Z,5.20
2018-12-11T00:10:32.410Z,5.20
2018-12-11T00:13:04.667Z,5.20
2018-12-11T00:15:37.004Z,5.20
2018-12-11T00:18:09.137Z,5.30
2018-12-11T00:20:41.257Z,5.30
2018-12-11T00:23:13.478Z,5.40
2018-12-11T00:25:50.867Z,5.30
2018-12-11T00:28:21.456Z,5.30
2018-12-11T00:30:53.543Z,5.30
2018-12-11T00:33:25.423Z,5.40
2018-12-11T00:35:57.647Z,5.30
2018-12-11T00:38:29.905Z,5.30
2018-12-11T00:41:05.411Z,5.40
2018-12-11T00:43:42.005Z,5.40
2018-12-11T00:46:17.553Z,5.40
2018-12-11T00:48:49.661Z,5.40
2018-12-11T00:51:21.604Z,5.50
2018-12-11T00:53:53.639Z,5.50
2018-12-11T00:56:25.845Z,5.50
2018-12-11T00:59:01.413Z,5.50
2018-12-11T01:01:33.489Z,5.40
2018-12-11T01:04:05.750Z,5.40
2018-12-11T01:06:42.840Z,5.40
2018-12-11T01:09:14.920Z,5.40
2018-12-11T01:11:51.034Z,5.40
2018-12-11T01:14:23.229Z,5.40
2018-12-11T01:16:59.444Z,5.40
2018-12-11T01:19:31.814Z,5.40
2018-12-11T01:22:09.153Z,5.40
2018-12-11T01:24:41.565Z,5.30
2018-12-11T01:27:13.049Z,5.20
2018-12-11T01:29:45.350Z,5.20
2018-12-11T01:32:17.689Z,5.30
2018-12-11T01:34:50.015Z,5.30
2018-12-11T01:37:21.908Z,5.30
2018-12-11T01:39:54.018Z,5.30
2018-12-11T01:42:26.389Z,5.20
2018-12-11T01:44:58.573Z,5.10
2018-12-11T01:47:30.898Z,4.90
2018-12-11T01:50:03.491Z,4.70
2018-12-11T01:52:35.697Z,4.60
2018-12-11T01:55:07.969Z,4.50
2018-12-11T01:57:40.199Z,4.10
2018-12-11T02:00:12.342Z,3.90
2018-12-11T02:02:44.414Z,3.80
2018-12-11T02:05:20.952Z,3.70
2018-12-11T02:07:57.163Z,3.60
2018-12-11T02:10:34.498Z,3.50
2018-12-11T02:13:10.774Z,3.50
2018-12-11T02:15:42.626Z,3.50
2018-12-11T02:18:14.823Z,3.70
2018-12-11T02:20:46.980Z,3.70
2018-12-11T02:23:18.986Z,3.80
2018-12-11T02:25:51.396Z,3.70
2018-12-11T02:28:23.738Z,3.80
2018-12-11T02:30:56.078Z,3.80
2018-12-11T02:33:28.040Z,3.70
2018-12-11T02:36:00.160Z,3.80
2018-12-11T02:38:36.831Z,3.90
2018-12-11T02:41:08.883Z,3.80
2018-12-11T02:43:40.965Z,3.90
2018-12-11T02:46:12.874Z,4.00
2018-12-11T02:56:22.775Z,4.20
2018-12-11T02:58:54.760Z,4.10
2018-12-11T03:01:30.821Z,4.10
2018-12-11T03:04:06.361Z,4.00
2018-12-11T03:06:38.274Z,4.00
2018-12-11T03:09:10.470Z,4.00
2018-12-11T03:11:42.588Z,4.10
2018-12-11T03:14:14.996Z,4.10
2018-12-11T03:16:46.911Z,4.10
2018-12-11T03:19:19.161Z,4.20
2018-12-11T03:21:51.586Z,4.20
2018-12-11T03:24:23.839Z,4.20
2018-12-11T03:26:56.186Z,4.30
2018-12-11T03:29:28.410Z,4.30
2018-12-11T03:32:00.432Z,4.30
2018-12-11T03:34:32.628Z,4.40
2018-12-11T03:37:04.727Z,4.40
2018-12-11T03:39:37.104Z,4.40
2018-12-11T03:42:14.181Z,4.40
2018-12-11T03:44:53.201Z,4.30
2018-12-11T03:47:25.333Z,4.30
2018-12-11T03:49:57.483Z,4.30
2018-12-11T03:52:29.534Z,4.30
2018-12-11T03:55:01.900Z,4.30
2018-12-11T03:57:33.998Z,4.30
2018-12-11T04:00:07.213Z,4.30
2018-12-11T04:02:46.275Z,4.20
2018-12-11T04:05:22.423Z,4.20
2018-12-11T04:08:01.531Z,4.20
2018-12-11T04:10:37.717Z,4.30
2018-12-11T04:13:09.657Z,4.30
2018-12-11T04:15:42.237Z,4.30
2018-12-11T04:18:14.289Z,4.20
2018-12-11T04:20:46.398Z,4.10
2018-12-11T04:23:18.729Z,4.10
2018-12-11T04:25:55.233Z,4.10
2018-12-11T04:28:27.529Z,4.20
2018-12-11T04:30:59.839Z,4.40
2018-12-11T04:33:32.156Z,4.40
2018-12-11T04:36:04.287Z,4.40
2018-12-11T04:38:36.430Z,4.30
2018-12-11T04:41:08.532Z,4.30
2018-12-11T04:43:43.622Z,4.30
2018-12-11T04:46:15.896Z,4.30
2018-12-11T04:48:48.196Z,4.30
2018-12-11T04:51:20.600Z,4.30
2018-12-11T04:53:52.796Z,4.30
2018-12-11T04:56:24.866Z,4.30
2018-12-11T05:09:09.026Z,4.20
2018-12-11T05:11:40.974Z,4.20
2018-12-11T05:14:12.979Z,4.10
2018-12-11T05:16:45.162Z,4.10
2018-12-11T05:19:17.364Z,4.10
2018-12-11T05:21:49.627Z,4.00
2018-12-11T05:24:21.541Z,4.10
2018-12-11T05:26:53.617Z,4.00
2018-12-11T05:29:25.834Z,4.00
2018-12-11T05:31:57.928Z,3.90
2018-12-11T05:34:30.245Z,3.90
2018-12-11T05:37:02.763Z,3.90
2018-12-11T05:39:34.769Z,3.80
2018-12-11T05:42:07.007Z,3.70
2018-12-11T05:44:39.227Z,3.60
2018-12-11T05:47:11.422Z,3.50
2018-12-11T05:49:43.925Z,3.50
2018-12-11T05:52:15.940Z,3.50
2018-12-11T05:54:52.251Z,3.60
2018-12-11T05:57:24.679Z,3.70
2018-12-11T05:59:56.883Z,3.70
2018-12-11T06:02:29.149Z,3.70
2018-12-11T06:05:01.265Z,3.80
2018-12-11T06:07:33.482Z,3.80
2018-12-11T06:10:06.938Z,3.80
2018-12-11T06:12:38.980Z,3.90
2018-12-11T06:15:11.473Z,4.00
2018-12-11T06:17:43.553Z,4.00
2018-12-11T06:20:15.606Z,4.00
2018-12-11T06:22:47.923Z,4.00
2018-12-11T06:25:20.322Z,4.10
2018-12-11T06:27:52.313Z,4.00
2018-12-11T06:30:24.421Z,4.00
2018-12-11T06:32:56.547Z,3.90
2018-12-11T06:35:28.977Z,4.00
2018-12-11T06:38:01.073Z,4.00
2018-12-11T06:40:33.109Z,4.00
2018-12-11T06:43:05.306Z,4.00
2018-12-11T06:45:37.332Z,4.00
2018-12-11T06:48:09.365Z,4.10
2018-12-11T06:50:41.528Z,4.10
2018-12-11T06:53:13.417Z,4.00
2018-12-11T06:55:45.519Z,4.00
2018-12-11T06:58:17.624Z,4.00
2018-12-11T07:00:49.962Z,4.10
2018-12-11T07:03:21.993Z,4.10
2018-12-11T07:05:54.204Z,4.10
2018-12-11T07:08:26.433Z,4.10
2018-12-11T07:10:58.546Z,4.00
2018-12-11T07:13:30.887Z,4.00
2018-12-11T07:16:03.061Z,4.10
2018-12-11T07:18:38.693Z,4.10
2018-12-11T07:21:10.726Z,4.10
2018-12-11T07:23:42.954Z,4.20
2018-12-11T07:26:14.935Z,4.10
2018-12-11T07:28:47.091Z,4.10
2018-12-11T07:31:19.263Z,4.10
2018-12-11T07:33:51.391Z,4.10
2018-12-11T07:36:23.734Z,4.00
2018-12-11T07:38:55.749Z,4.00
2018-12-11T07:41:28.004Z,4.00
2018-12-11T07:44:04.479Z,4.00
2018-12-11T07:46:36.585Z,4.00
2018-12-11T07:49:08.873Z,4.00
2018-12-11T07:51:41.161Z,4.00
2018-12-11T07:54:13.184Z,3.90
2018-12-11T07:56:45.509Z,3.80
2018-12-11T07:59:17.783Z,3.70
2018-12-11T08:01:49.942Z,3.60
2018-12-11T08:04:21.726Z,3.60
2018-12-11T08:06:54.087Z,3.50
2018-12-11T08:09:26.205Z,3.50
2018-12-11T08:12:08.164Z,3.50
2018-12-11T08:14:36.611Z,3.50
2018-12-11T08:17:09.001Z,3.50
2018-12-11T08:19:40.981Z,3.50
2018-12-11T08:22:13.036Z,3.50
2018-12-11T08:24:45.371Z,3.50
2018-12-11T08:27:21.650Z,3.40
2018-12-11T08:29:53.815Z,3.50
2018-12-11T08:32:26.064Z,3.50
2018-12-11T08:34:58.666Z,3.50
2018-12-11T08:37:30.670Z,3.50
2018-12-11T08:40:02.953Z,3.50
2018-12-11T08:42:35.564Z,3.50
2018-12-11T08:45:08.040Z,3.50
2018-12-11T08:47:40.167Z,3.50
2018-12-11T08:50:15.652Z,3.50
2018-12-11T08:52:48.090Z,3.50
2018-12-11T08:55:20.442Z,3.60
2018-12-11T08:57:52.847Z,3.60
2018-12-11T09:00:25.149Z,3.70
2018-12-11T09:02:57.479Z,3.80
2018-12-11T09:05:29.551Z,3.80
2018-12-11T09:08:01.998Z,3.80
2018-12-11T09:10:40.989Z,3.70
2018-12-11T09:13:17.423Z,3.70
2018-12-11T09:15:49.659Z,3.70
2018-12-11T09:18:21.978Z,3.60
2018-12-11T09:20:54.090Z,3.60
2018-12-11T09:23:26.031Z,3.60
2018-12-11T09:25:58.066Z,3.60
2018-12-11T09:28:30.359Z,3.60
2018-12-11T09:31:02.536Z,3.60
2018-12-11T09:33:34.724Z,3.70
2018-12-11T09:36:11.628Z,3.70
2018-12-11T09:38:43.934Z,3.70
2018-12-11T09:41:21.163Z,3.80
2018-12-11T09:43:53.210Z,3.80
2018-12-11T09:46:25.654Z,3.90
2018-12-11T09:48:57.851Z,4.00
2018-12-11T09:51:30.082Z,4.00
2018-12-11T09:54:02.392Z,4.10
2018-12-11T09:56:37.904Z,4.20
2018-12-11T09:59:10.350Z,4.20
2018-12-11T10:01:42.342Z,4.30
2018-12-11T10:04:14.549Z,4.40
2018-12-11T10:06:46.736Z,4.50
2018-12-11T10:09:22.345Z,4.60
2018-12-11T10:11:54.833Z,4.70
2018-12-11T10:14:27.141Z,4.80
2018-12-11T10:16:59.473Z,4.90
2018-12-11T10:24:49.734Z,4.80
2018-12-11T10:32:36.885Z,4.90
2018-12-11T10:35:09.452Z,5.10
2018-12-11T10:37:41.625Z,5.30
2018-12-11T10:40:13.962Z,5.50
2018-12-11T10:42:46.030Z,5.60
2018-12-11T10:45:22.284Z,5.60
2018-12-11T10:47:54.595Z,5.60
2018-12-11T10:50:26.923Z,5.80
2018-12-11T10:52:59.244Z,5.80
2018-12-11T10:55:31.432Z,5.90
2018-12-11T10:58:03.913Z,5.80
2018-12-11T11:00:46.922Z,5.70
2018-12-11T11:03:19.214Z,5.70
2018-12-11T11:05:51.409Z,5.50
2018-12-11T11:08:23.600Z,5.40
2018-12-11T11:10:55.834Z,5.30
2018-12-11T11:13:28.149Z,5.30
2018-12-11T11:16:00.350Z,5.20
2018-12-11T11:18:32.299Z,5.20
2018-12-11T11:21:04.607Z,5.20
2018-12-11T11:23:37.037Z,5.30
2018-12-11T11:26:09.463Z,5.40
2018-12-11T11:28:41.783Z,5.40
2018-12-11T11:31:14.095Z,5.50
2018-12-11T11:33:46.238Z,5.50
2018-12-11T11:36:18.215Z,5.50
2018-12-11T11:38:50.240Z,5.50
2018-12-11T11:41:22.647Z,5.50
2018-12-11T11:43:54.920Z,5.50
2018-12-11T11:46:27.311Z,5.50
2018-12-11T11:48:59.519Z,5.50
2018-12-11T11:51:31.937Z,5.50
2018-12-11T11:54:04.030Z,5.50
2018-12-11T11:56:36.188Z,5.50
2018-12-11T11:59:08.358Z,5.60
2018-12-11T12:01:40.559Z,5.60
2018-12-11T12:04:12.829Z,5.60
2018-12-11T12:06:49.895Z,5.60
2018-12-11T12:09:22.172Z,5.50
2018-12-11T12:11:54.277Z,5.50
2018-12-11T12:14:26.670Z,5.50
2018-12-11T12:16:58.898Z,5.60
2018-12-11T12:19:30.867Z,5.60
2018-12-11T12:22:03.269Z,5.60
2018-12-11T12:24:35.661Z,5.60
2018-12-11T12:27:07.840Z,5.50
2018-12-11T12:29:40.163Z,5.50
2018-12-11T12:32:12.421Z,5.50
2018-12-11T12:34:44.757Z,5.50
2018-12-11T12:37:16.937Z,5.50
2018-12-11T12:39:49.270Z,5.50
2018-12-11T12:42:21.367Z,5.60
2018-12-11T12:44:53.785Z,5.60
2018-12-11T12:47:30.093Z,5.70
2018-12-11T12:50:02.589Z,5.70
2018-12-11T12:52:34.678Z,5.70
2018-12-11T12:55:07.130Z,5.80
2018-12-11T12:57:39.178Z,5.80
2018-12-11T13:00:11.498Z,5.70
2018-12-11T13:02:49.681Z,5.80
2018-12-11T13:05:18.102Z,5.90
2018-12-11T13:07:50.285Z,6.10
2018-12-11T13:10:22.635Z,6.30
2018-12-11T13:12:54.317Z,6.40
2018-12-11T13:15:26.509Z,6.40
2018-12-11T13:17:58.801Z,6.40
2018-12-11T13:20:31.093Z,6.30
2018-12-11T13:23:03.346Z,6.30
2018-12-11T13:25:35.588Z,6.30
2018-12-11T13:28:07.920Z,6.30
2018-12-11T13:30:40.205Z,6.20
2018-12-11T13:33:12.493Z,6.00
2018-12-11T13:35:44.719Z,5.70
2018-12-11T13:38:16.987Z,5.40
2018-12-11T13:40:53.581Z,5.10
2018-12-11T13:43:25.521Z,5.00
2018-12-11T13:45:57.930Z,4.90
2018-12-11T13:48:30.230Z,4.80
2018-12-11T13:51:02.257Z,4.70
2018-12-11T13:53:34.289Z,4.60
2018-12-11T13:56:11.107Z,4.50
2018-12-11T13:58:46.576Z,4.50
2018-12-11T14:01:23.142Z,4.50
2018-12-11T14:03:55.525Z,4.50
2018-12-11T14:06:27.846Z,4.40
2018-12-11T14:09:04.332Z,4.30
2018-12-11T14:11:36.720Z,4.30
2018-12-11T14:14:08.888Z,4.20
2018-12-11T14:16:45.592Z,4.20
2018-12-11T14:19:17.832Z,4.20
2018-12-11T14:21:53.878Z,4.10
2018-12-11T14:24:30.200Z,4.10
2018-12-11T14:27:02.417Z,4.10
2018-12-11T14:29:34.865Z,4.10
2018-12-11T14:32:06.968Z,4.00
2018-12-11T14:34:39.015Z,4.00
2018-12-11T14:37:11.289Z,4.00
2018-12-11T14:39:43.629Z,4.00
2018-12-11T14:42:15.808Z,4.00
2018-12-11T14:44:48.147Z,4.00
2018-12-11T14:47:20.523Z,3.90
2018-12-11T14:49:52.878Z,3.80
2018-12-11T14:52:25.055Z,3.80
2018-12-11T14:54:57.387Z,3.80
2018-12-11T14:57:31.415Z,3.80
2018-12-11T15:00:04.673Z,3.90
2018-12-11T15:02:40.410Z,3.90
2018-12-11T15:05:12.859Z,3.90
2018-12-11T15:07:45.140Z,3.90
2018-12-11T15:10:21.974Z,3.90
2018-12-11T15:12:54.180Z,3.90
2018-12-11T15:15:26.413Z,3.90
2018-12-11T15:17:58.649Z,3.80
2018-12-11T15:20:30.665Z,3.80
2018-12-11T15:23:06.171Z,3.90
2018-12-11T15:25:38.550Z,3.80
2018-12-11T15:28:10.736Z,3.80
2018-12-11T15:30:43.008Z,3.70
2018-12-11T15:33:18.523Z,3.70
2018-12-11T15:35:50.672Z,3.70
2018-12-11T15:38:22.766Z,3.70
2018-12-11T15:40:55.043Z,3.60
2018-12-11T15:43:27.612Z,3.50
2018-12-11T15:46:01.112Z,3.40
2018-12-11T15:48:33.050Z,3.30
2018-12-11T15:51:05.062Z,3.20
2018-12-11T15:53:37.272Z,3.10
2018-12-11T15:56:09.270Z,3.00
2018-12-11T15:58:45.418Z,3.00
2018-12-11T16:01:21.788Z,3.00
2018-12-11T16:03:53.981Z,2.90
2018-12-11T16:06:26.271Z,2.90
2018-12-11T16:08:58.478Z,2.90
2018-12-11T16:11:30.475Z,2.80
2018-12-11T16:14:02.905Z,2.80
2018-12-11T16:16:35.177Z,2.80
2018-12-11T16:19:07.443Z,2.80
2018-12-11T16:21:39.867Z,2.80
2018-12-11T16:24:12.075Z,2.80
2018-12-11T16:26:44.165Z,2.80
2018-12-11T16:29:20.412Z,2.80
2018-12-11T16:31:55.938Z,2.80
2018-12-11T16:34:28.117Z,2.80
2018-12-11T16:37:03.785Z,2.80
2018-12-11T16:39:35.957Z,2.70
2018-12-11T16:42:07.992Z,2.70
2018-12-11T16:44:40.090Z,2.70
2018-12-11T16:47:12.098Z,2.70
2018-12-11T16:49:44.195Z,2.60
2018-12-11T16:52:16.292Z,2.60
2018-12-11T16:54:48.634Z,2.70
2018-12-11T16:57:20.687Z,2.60
2018-12-11T16:59:57.847Z,2.60
2018-12-11T17:02:30.050Z,2.60
2018-12-11T17:05:02.230Z,2.60
2018-12-11T17:07:34.635Z,2.70
2018-12-11T17:10:05.734Z,2.70
2018-12-11T17:12:38.290Z,2.70
2018-12-11T17:15:19.524Z,2.70
2018-12-11T17:17:51.801Z,2.70
2018-12-11T17:20:24.134Z,2.60
2018-12-11T17:22:59.643Z,2.60
2018-12-11T17:25:31.950Z,2.60
2018-12-11T17:28:08.146Z,2.60
2018-12-11T17:30:40.338Z,2.60
2018-12-11T17:33:12.658Z,2.60
2018-12-11T17:35:44.745Z,2.60
2018-12-11T17:38:17.249Z,2.60
2018-12-11T17:40:49.223Z,2.60
2018-12-11T17:43:21.653Z,2.70
2018-12-11T17:45:54.080Z,2.60
2018-12-11T17:48:26.386Z,2.60
2018-12-11T17:50:58.563Z,2.60
2018-12-11T17:53:30.687Z,2.60
2018-12-11T17:56:02.710Z,2.50
2018-12-11T17:58:35.115Z,2.50
2018-12-11T18:01:11.256Z,2.50
2018-12-11T18:03:43.635Z,2.50
2018-12-11T18:06:15.927Z,2.50
2018-12-11T18:08:48.012Z,2.60
2018-12-11T18:11:20.110Z,2.60
2018-12-11T18:13:52.337Z,2.60
2018-12-11T18:16:24.311Z,2.60
2018-12-11T18:18:56.720Z,2.50
2018-12-11T18:21:32.471Z,2.40
2018-12-11T18:24:04.736Z,2.30
2018-12-11T18:26:36.754Z,2.30
2018-12-11T18:29:08.753Z,2.30
2018-12-11T18:31:41.044Z,2.20
2018-12-11T18:34:13.254Z,2.30
2018-12-11T18:36:45.754Z,2.30
2018-12-11T18:39:17.882Z,2.20
2018-12-11T18:41:50.236Z,2.30
2018-12-11T18:44:22.254Z,2.20
2018-12-11T18:46:54.461Z,2.20
2018-12-11T18:49:29.950Z,2.20
2018-12-11T18:52:02.411Z,2.10
2018-12-11T18:54:34.520Z,2.10
2018-12-11T18:57:06.813Z,2.00
2018-12-11T18:59:39.129Z,2.00
2018-12-11T19:02:11.304Z,1.90
2018-12-11T19:04:43.651Z,1.80
2018-12-11T19:07:15.746Z,1.80
2018-12-11T19:09:48.181Z,1.80
2018-12-11T19:12:20.269Z,1.70
2018-12-11T19:14:55.775Z,1.70
2018-12-11T19:17:27.919Z,1.70
2018-12-11T19:20:00.020Z,1.70
2018-12-11T19:22:35.527Z,1.70
2018-12-11T19:25:15.437Z,1.60
2018-12-11T19:27:52.317Z,1.60
2018-12-11T19:30:24.619Z,1.60
2018-12-11T19:32:56.589Z,1.50
2018-12-11T19:35:33.045Z,1.50
2018-12-11T19:38:02.951Z,1.40
2018-12-11T19:40:40.755Z,1.40
2018-12-11T19:43:09.655Z,1.40
2018-12-11T19:45:41.746Z,1.40
2018-12-11T19:48:14.037Z,1.40
2018-12-11T19:50:46.381Z,1.40
2018-12-11T19:53:18.652Z,1.40
2018-12-11T19:55:50.659Z,1.40
2018-12-11T19:58:22.776Z,1.40
2018-12-11T20:00:55.085Z,1.40
2018-12-11T20:03:27.180Z,1.30
2018-12-11T20:05:59.417Z,1.40
2018-12-11T20:08:35.574Z,1.30
2018-12-11T20:11:07.869Z,1.30
2018-12-11T20:13:40.121Z,1.30
2018-12-11T20:16:12.423Z,1.20
2018-12-11T20:18:44.359Z,1.10
2018-12-11T20:21:16.808Z,1.10
2018-12-11T20:23:48.976Z,1.10
2018-12-11T20:26:21.130Z,1.00
2018-12-11T20:46:27.851Z,1.10
2018-12-11T21:17:04.721Z,1.20
2018-12-11T21:19:41.839Z,1.20
2018-12-11T21:22:17.419Z,1.10
2018-12-11T21:24:49.713Z,1.10
2018-12-11T21:27:21.936Z,1.00
2018-12-11T21:29:54.386Z,1.00
2018-12-11T21:32:26.638Z,0.90
2018-12-11T21:34:58.922Z,0.90
2018-12-11T21:37:31.136Z,0.90
2018-12-11T21:40:03.346Z,0.80
2018-12-11T21:42:39.974Z,0.80
2018-12-11T21:45:12.392Z,0.80
2018-12-11T21:47:49.267Z,0.70
2018-12-11T21:50:21.174Z,0.70
2018-12-11T21:52:53.188Z,0.60
2018-12-11T21:55:25.273Z,0.60
2018-12-11T21:57:57.298Z,0.50
2018-12-11T22:00:29.178Z,0.40
2018-12-11T22:03:01.490Z,0.30
2018-12-11T22:05:33.682Z,0.20
2018-12-11T22:08:05.857Z,0.20
2018-12-11T22:10:37.858Z,0.20
2018-12-11T22:13:09.847Z,0.10
2018-12-11T22:15:42.070Z,0.00
2018-12-11T22:18:18.082Z,0.00
2018-12-11T22:20:50.555Z,0.00
2018-12-11T22:23:22.889Z,0.00
2018-12-11T22:25:55.100Z,0.00
2018-12-11T22:28:27.426Z,0.00
2018-12-11T22:30:59.629Z,-0.10
2018-12-11T22:33:31.929Z,-0.20
2018-12-11T22:36:07.516Z,-0.30
2018-12-11T22:38:40.259Z,-0.30
2018-12-11T22:41:12.187Z,-0.40
2018-12-11T22:43:44.343Z,-0.50
2018-12-11T22:46:16.522Z,-0.50
2018-12-11T22:48:48.764Z,-0.50
2018-12-11T22:51:21.526Z,-0.50
2018-12-11T22:53:53.937Z,-0.50
2018-12-11T22:56:26.008Z,-0.50
2018-12-11T22:59:02.326Z,-0.50
2018-12-11T23:01:34.623Z,-0.50
2018-12-11T23:04:06.662Z,-0.40
2018-12-11T23:06:38.810Z,-0.50
2018-12-11T23:09:16.047Z,-0.50
2018-12-11T23:11:51.594Z,-0.60
2018-12-11T23:14:24.066Z,-0.60
2018-12-11T23:17:00.316Z,-0.60
2018-12-11T23:19:32.726Z,-0.60
2018-12-11T23:22:04.922Z,-0.70
2018-12-11T23:24:37.402Z,-0.70
2018-12-11T23:27:09.570Z,-0.70
2018-12-11T23:29:41.678Z,-0.70
2018-12-11T23:32:13.879Z,-0.70
2018-12-11T23:34:46.190Z,-0.70
2018-12-11T23:37:18.194Z,-0.60
2018-12-11T23:39:50.129Z,-0.60
2018-12-11T23:42:22.436Z,-0.70
2018-12-11T23:44:54.592Z,-0.80
2018-12-11T23:47:27.033Z,-0.90
2018-12-11T23:49:59.235Z,-0.90
2018-12-11T23:52:34.776Z,-0.90
2018-12-11T23:55:07.424Z,-0.80
2018-12-11T23:57:39.509Z,-0.80
